createdAt,value
2023-01-04T00:01:34.223Z,100.00
2023-01-04T00:04:02.238Z,100.00
2023-01-04T00:06:30.283Z,100.00
2023-01-04T00:08:58.054Z,100.00
2023-01-04T00:11:25.977Z,100.00
2023-01-04T00:13:54.690Z,100.00
2023-01-04T00:16:24.102Z,100.00
2023-01-04T00:18:52.453Z,100.00
2023-01-04T00:21:27.693Z,100.00
2023-01-04T00:23:57.418Z,100.00
2023-01-04T00:26:27.023Z,100.00
2023-01-04T00:28:56.303Z,100.00
2023-01-04T00:31:24.420Z,100.00
2023-01-04T00:33:54.819Z,100.00
2023-01-04T00:36:22.687Z,100.00
2023-01-04T00:39:08.964Z,100.00
2023-01-04T00:42:03.416Z,100.00
2023-01-04T00:44:31.546Z,100.00
2023-01-04T00:47:00.159Z,100.00
2023-01-04T00:49:28.363Z,100.00
2023-01-04T00:51:56.137Z,100.00
2023-01-04T00:54:24.113Z,100.00
2023-01-04T00:56:52.359Z,100.00
2023-01-04T00:59:20.932Z,100.00
2023-01-04T01:01:49.166Z,100.00
2023-01-04T01:04:18.739Z,100.00
2023-01-04T01:06:46.584Z,100.00
2023-01-04T01:09:14.318Z,100.00
2023-01-04T01:11:42.548Z,100.00
2023-01-04T01:14:11.212Z,100.00
2023-01-04T01:16:54.340Z,100.00
2023-01-04T01:19:22.521Z,100.00
2023-01-04T01:21:50.340Z,100.00
2023-01-04T01:24:19.233Z,100.00
2023-01-04T01:26:47.061Z,100.00
2023-01-04T01:29:14.955Z,100.00
2023-01-04T01:31:42.981Z,100.00
2023-01-04T01:34:10.826Z,100.00
2023-01-04T01:36:38.564Z,100.00
2023-01-04T01:39:07.131Z,100.00
2023-01-04T01:41:35.717Z,100.00
2023-01-04T01:44:03.361Z,100.00
2023-01-04T01:46:44.023Z,100.00
2023-01-04T01:49:14.635Z,100.00
2023-01-04T01:51:42.736Z,100.00
2023-01-04T01:54:14.173Z,100.00
2023-01-04T01:56:42.333Z,100.00
2023-01-04T01:59:10.815Z,100.00
2023-01-04T02:01:38.760Z,100.00
2023-01-04T02:04:06.827Z,100.00
2023-01-04T02:06:36.836Z,100.00
2023-01-04T02:09:04.671Z,100.00
2023-01-04T02:11:32.550Z,100.00
2023-01-04T02:14:18.693Z,100.00
2023-01-04T02:17:17.663Z,100.00
2023-01-04T02:19:45.416Z,100.00
2023-01-04T02:22:24.854Z,100.00
2023-01-04T02:25:04.411Z,100.00
2023-01-04T02:27:35.105Z,100.00
2023-01-04T02:30:12.668Z,100.00
2023-01-04T02:32:46.883Z,100.00
2023-01-04T02:35:14.544Z,100.00
2023-01-04T02:38:06.617Z,100.00
2023-01-04T02:40:57.809Z,100.00
2023-01-04T02:44:14.839Z,100.00
2023-01-04T02:46:50.410Z,100.00
2023-01-04T02:49:36.775Z,100.00
2023-01-04T02:52:04.619Z,100.00
2023-01-04T02:54:33.613Z,100.00
2023-01-04T02:57:34.387Z,100.00
2023-01-04T03:00:22.334Z,100.00
2023-01-04T03:03:13.675Z,100.00
2023-01-04T03:06:07.651Z,100.00
2023-01-04T03:08:56.736Z,100.00
2023-01-04T03:11:43.027Z,100.00
2023-01-04T03:14:30.785Z,100.00
2023-01-04T03:17:01.771Z,100.00
2023-01-04T03:19:48.073Z,100.00
2023-01-04T03:22:36.180Z,100.00
2023-01-04T03:25:22.407Z,100.00
2023-01-04T03:28:08.717Z,100.00
2023-01-04T03:30:55.743Z,100.00
2023-01-04T03:33:41.960Z,100.00
2023-01-04T03:36:39.887Z,100.00
2023-01-04T03:39:54.898Z,100.00
2023-01-04T03:42:48.371Z,100.00
2023-01-04T03:45:39.906Z,100.00
2023-01-04T03:48:46.176Z,100.00
2023-01-04T03:51:27.050Z,100.00
2023-01-04T03:53:57.634Z,100.00
2023-01-04T03:56:25.495Z,100.00
2023-01-04T03:58:53.276Z,100.00
2023-01-04T04:01:21.426Z,100.00
2023-01-04T04:04:07.755Z,100.00
2023-01-04T04:06:54.165Z,100.00
2023-01-04T04:09:22.060Z,100.00
2023-01-04T04:11:49.848Z,100.00
2023-01-04T04:14:17.663Z,100.00
2023-01-04T04:16:45.769Z,100.00
2023-01-04T04:19:13.582Z,100.00
2023-01-04T04:21:41.492Z,100.00
2023-01-04T04:24:09.588Z,100.00
2023-01-04T04:26:37.420Z,100.00
2023-01-04T04:29:05.148Z,100.00
2023-01-04T04:31:33.163Z,100.00
2023-01-04T04:34:00.956Z,100.00
2023-01-04T04:36:28.669Z,100.00
2023-01-04T04:38:56.419Z,100.00
2023-01-04T04:41:39.668Z,100.00
2023-01-04T04:44:09.002Z,100.00
2023-01-04T04:46:36.858Z,100.00
2023-01-04T04:49:04.930Z,100.00
2023-01-04T04:51:32.840Z,100.00
2023-01-04T04:54:00.772Z,100.00
2023-01-04T04:56:28.627Z,100.00
2023-01-04T04:58:56.379Z,100.00
2023-01-04T05:01:24.363Z,100.00
2023-01-04T05:03:52.261Z,100.00
2023-01-04T05:06:20.073Z,100.00
2023-01-04T05:08:47.791Z,100.00
2023-01-04T05:11:15.662Z,100.00
2023-01-04T05:13:43.423Z,100.00
2023-01-04T05:16:11.276Z,100.00
2023-01-04T05:18:39.090Z,100.00
2023-01-04T05:21:07.015Z,100.00
2023-01-04T05:23:34.774Z,100.00
2023-01-04T05:26:02.745Z,100.00
2023-01-04T05:28:30.513Z,100.00
2023-01-04T05:30:58.404Z,100.00
2023-01-04T05:33:28.068Z,100.00
2023-01-04T05:35:56.583Z,100.00
2023-01-04T05:38:24.587Z,100.00
2023-01-04T05:40:52.477Z,100.00
2023-01-04T05:43:20.730Z,100.00
2023-01-04T05:45:50.209Z,100.00
2023-01-04T05:48:18.521Z,100.00
2023-01-04T05:50:47.048Z,100.00
2023-01-04T05:53:15.318Z,100.00
2023-01-04T05:55:43.114Z,100.00
2023-01-04T05:58:10.945Z,100.00
2023-01-04T06:00:38.769Z,100.00
2023-01-04T06:03:06.846Z,100.00
2023-01-04T06:05:34.792Z,100.00
2023-01-04T06:08:02.588Z,100.00
2023-01-04T06:10:30.395Z,100.00
2023-01-04T06:12:58.185Z,100.00
2023-01-04T06:15:26.039Z,100.00
2023-01-04T06:17:53.912Z,100.00
2023-01-04T06:20:21.775Z,100.00
2023-01-04T06:22:49.568Z,100.00
2023-01-04T06:25:17.360Z,100.00
2023-01-04T06:27:45.193Z,100.00
2023-01-04T06:30:13.068Z,100.00
2023-01-04T06:32:40.795Z,100.00
2023-01-04T06:35:08.839Z,100.00
2023-01-04T06:37:37.185Z,100.00
2023-01-04T06:40:05.745Z,100.00
2023-01-04T06:42:48.651Z,100.00
2023-01-04T06:45:17.087Z,100.00
2023-01-04T06:47:45.009Z,100.00
2023-01-04T06:50:13.035Z,100.00
2023-01-04T06:52:40.996Z,100.00
2023-01-04T06:55:10.578Z,100.00
2023-01-04T06:57:38.776Z,100.00
2023-01-04T07:00:07.728Z,100.00
2023-01-04T07:02:35.732Z,100.00
2023-01-04T07:05:03.956Z,100.00
2023-01-04T07:07:31.950Z,100.00
2023-01-04T07:10:03.874Z,100.00
2023-01-04T07:12:37.883Z,100.00
2023-01-04T07:15:38.901Z,100.00
2023-01-04T07:17:54.169Z,100.00
2023-01-04T07:20:21.958Z,100.00
2023-01-04T07:22:49.868Z,100.00
2023-01-04T07:25:17.781Z,100.00
2023-01-04T07:27:45.708Z,100.00
2023-01-04T07:30:14.029Z,100.00
2023-01-04T07:32:41.900Z,100.00
2023-01-04T07:35:10.366Z,100.00
2023-01-04T07:37:38.420Z,100.00
2023-01-04T07:40:07.199Z,100.00
2023-01-04T07:42:35.185Z,100.00
2023-01-04T07:45:03.240Z,100.00
2023-01-04T07:47:31.323Z,100.00
2023-01-04T07:49:59.907Z,100.00
2023-01-04T07:52:28.466Z,100.00
2023-01-04T07:54:56.459Z,100.00
2023-01-04T07:57:24.503Z,100.00
2023-01-04T07:59:53.061Z,100.00
2023-01-04T08:02:21.596Z,100.00
2023-01-04T08:04:49.758Z,100.00
2023-01-04T08:07:18.003Z,100.00
2023-01-04T08:09:45.867Z,100.00
2023-01-04T08:12:14.013Z,100.00
2023-01-04T08:14:41.928Z,100.00
2023-01-04T08:17:09.977Z,100.00
2023-01-04T08:19:37.956Z,100.00
2023-01-04T08:22:06.202Z,100.00
2023-01-04T08:24:34.365Z,100.00
2023-01-04T08:27:02.305Z,100.00
2023-01-04T08:29:34.739Z,100.00
2023-01-04T08:32:02.700Z,100.00
2023-01-04T08:34:31.276Z,100.00
2023-01-04T08:36:59.811Z,100.00
2023-01-04T08:39:30.701Z,100.00
2023-01-04T08:42:31.532Z,100.00
2023-01-04T08:44:46.836Z,100.00
2023-01-04T08:47:14.776Z,100.00
2023-01-04T08:49:43.080Z,100.00
2023-01-04T08:52:11.473Z,100.00
2023-01-04T08:54:39.464Z,100.00
2023-01-04T08:57:07.507Z,100.00
2023-01-04T08:59:35.550Z,100.00
2023-01-04T09:02:06.008Z,100.00
2023-01-04T09:04:34.460Z,100.00
2023-01-04T09:07:02.452Z,100.00
2023-01-04T09:09:31.289Z,100.00
2023-01-04T09:12:00.898Z,100.00
2023-01-04T09:14:29.067Z,100.00
2023-01-04T09:16:56.996Z,100.00
2023-01-04T09:19:25.116Z,100.00
2023-01-04T09:21:53.147Z,100.00
2023-01-04T09:24:21.304Z,100.00
2023-01-04T09:26:49.403Z,100.00
2023-01-04T09:29:17.593Z,100.00
2023-01-04T09:31:45.564Z,100.00
2023-01-04T09:34:16.077Z,100.00
2023-01-04T09:36:46.592Z,100.00
2023-01-04T09:39:21.535Z,100.00
2023-01-04T09:42:06.005Z,100.00
2023-01-04T09:45:12.294Z,100.00
2023-01-04T09:47:43.304Z,100.00
2023-01-04T09:50:30.512Z,100.00
2023-01-04T09:53:02.262Z,100.00
2023-01-04T09:55:41.252Z,100.00
2023-01-04T09:58:13.357Z,100.00
2023-01-04T10:00:46.571Z,100.00
2023-01-04T10:03:35.891Z,100.00
2023-01-04T10:06:04.404Z,100.00
2023-01-04T10:08:32.877Z,100.00
2023-01-04T10:11:10.046Z,100.00
2023-01-04T10:13:47.941Z,100.00
2023-01-04T10:22:49.127Z,100.00
2023-01-04T10:25:27.506Z,100.00
2023-01-04T10:28:14.362Z,100.00
2023-01-04T10:30:45.303Z,100.00
2023-01-04T10:33:20.668Z,100.00
2023-01-04T10:35:49.315Z,100.00
2023-01-04T10:38:19.458Z,100.00
2023-01-04T10:40:48.757Z,100.00
2023-01-04T10:44:11.557Z,100.00
2023-01-04T10:46:44.189Z,100.00
2023-01-04T10:49:24.541Z,100.00
2023-01-04T10:52:00.113Z,100.00
2023-01-04T10:54:55.334Z,100.00
2023-01-04T10:57:35.909Z,100.00
2023-01-04T11:00:07.039Z,100.00
2023-01-04T11:02:47.179Z,100.00
2023-01-04T11:05:37.548Z,100.00
2023-01-04T11:08:23.983Z,100.00
2023-01-04T11:10:56.953Z,100.00
2023-01-04T11:13:25.364Z,100.00
2023-01-04T11:15:53.648Z,100.00
2023-01-04T11:18:21.601Z,100.00
2023-01-04T11:20:49.640Z,100.00
2023-01-04T11:23:19.301Z,100.00
2023-01-04T11:25:56.593Z,100.00
2023-01-04T11:28:38.788Z,100.00
2023-01-04T11:31:10.530Z,100.00
2023-01-04T11:33:57.625Z,100.00
2023-01-04T11:36:37.986Z,100.00
2023-01-04T11:39:27.341Z,100.00
2023-01-04T11:42:05.890Z,100.00
2023-01-04T11:44:34.921Z,100.00
2023-01-04T11:47:10.192Z,100.00
2023-01-04T11:49:38.123Z,100.00
2023-01-04T11:52:06.728Z,100.00
2023-01-04T11:54:34.658Z,100.00
2023-01-04T11:57:12.059Z,100.00
2023-01-04T11:59:40.469Z,100.00
2023-01-04T12:02:28.581Z,100.00
2023-01-04T12:05:01.097Z,100.00
2023-01-04T12:07:33.032Z,100.00
2023-01-04T12:10:01.837Z,100.00
2023-01-04T12:12:33.838Z,100.00
2023-01-04T12:15:04.216Z,100.00
2023-01-04T12:17:44.400Z,100.00
2023-01-04T12:20:19.615Z,100.00
2023-01-04T12:22:48.038Z,100.00
2023-01-04T12:25:34.226Z,100.00
2023-01-04T12:28:02.273Z,100.00
2023-01-04T12:30:46.989Z,100.00
2023-01-04T12:33:44.614Z,100.00
2023-01-04T12:36:16.112Z,100.00
2023-01-04T12:38:56.464Z,100.00
2023-01-04T12:41:46.491Z,100.00
2023-01-04T12:44:36.357Z,100.00
2023-01-04T12:47:48.737Z,100.00
2023-01-04T12:50:34.936Z,100.00
2023-01-04T12:55:55.787Z,100.00
2023-01-04T12:58:57.903Z,100.00
2023-01-04T13:01:25.950Z,100.00
2023-01-04T13:04:04.304Z,100.00
2023-01-04T13:06:35.322Z,100.00
2023-01-04T13:09:03.601Z,100.00
2023-01-04T13:11:41.954Z,100.00
2023-01-04T13:14:12.786Z,100.00
2023-01-04T13:17:08.998Z,100.00
2023-01-04T13:19:39.433Z,100.00
2023-01-04T13:22:26.603Z,100.00
2023-01-04T13:24:58.935Z,100.00
2023-01-04T13:27:27.692Z,100.00
2023-01-04T13:29:55.970Z,100.00
2023-01-04T13:32:30.552Z,100.00
2023-01-04T13:35:15.251Z,100.00
2023-01-04T13:37:47.729Z,100.00
2023-01-04T13:40:15.678Z,99.44
2023-01-04T13:42:45.577Z,99.73
2023-01-04T13:45:43.430Z,99.59
2023-01-04T13:48:13.691Z,99.30
2023-01-04T13:50:45.400Z,100.00
2023-01-04T13:53:22.821Z,100.00
2023-01-04T13:55:54.734Z,100.00
2023-01-04T13:58:24.333Z,100.00
2023-01-04T14:01:04.026Z,100.00
2023-01-04T14:03:37.849Z,100.00
2023-01-04T14:06:11.741Z,99.54
2023-01-04T14:08:53.189Z,100.00
2023-01-04T14:11:42.954Z,98.94
2023-01-04T14:14:26.455Z,99.48
2023-01-04T14:16:54.873Z,100.00
2023-01-04T14:20:09.018Z,100.00
2023-01-04T14:22:45.776Z,100.00
2023-01-04T14:25:32.146Z,100.00
2023-01-04T14:28:26.083Z,100.00
2023-01-04T14:31:23.722Z,99.45
2023-01-04T14:33:52.459Z,100.00
2023-01-04T14:36:31.406Z,100.00
2023-01-04T14:39:07.896Z,100.00
2023-01-04T14:41:53.411Z,99.18
2023-01-04T14:44:32.069Z,100.00
2023-01-04T14:47:01.531Z,99.37
2023-01-04T14:49:29.798Z,98.79
2023-01-04T14:52:00.304Z,97.91
2023-01-04T14:54:29.180Z,97.93
2023-01-04T14:56:58.243Z,97.35
2023-01-04T14:59:26.748Z,98.02
2023-01-04T15:01:55.645Z,96.88
2023-01-04T15:04:24.170Z,97.10
2023-01-04T15:07:01.478Z,97.50
2023-01-04T15:09:30.352Z,96.88
2023-01-04T15:11:58.598Z,97.81
2023-01-04T15:14:26.447Z,99.00
2023-01-04T15:16:54.440Z,98.14
2023-01-04T15:19:22.979Z,98.80
2023-01-04T15:21:50.839Z,96.59
2023-01-04T15:24:18.751Z,96.63
2023-01-04T15:26:46.713Z,95.78
2023-01-04T15:29:14.928Z,96.37
2023-01-04T15:31:45.166Z,96.00
2023-01-04T15:34:15.639Z,95.24
2023-01-04T15:36:43.707Z,97.05
2023-01-04T15:39:15.354Z,96.40
2023-01-04T15:42:02.044Z,95.11
2023-01-04T15:44:29.922Z,95.75
2023-01-04T15:47:00.459Z,95.51
2023-01-04T15:49:30.972Z,95.49
2023-01-04T15:51:58.865Z,95.83
2023-01-04T15:54:28.002Z,95.59
2023-01-04T15:57:01.982Z,95.80
2023-01-04T15:59:30.039Z,95.45
2023-01-04T16:01:58.713Z,95.70
2023-01-04T16:04:28.101Z,96.42
2023-01-04T16:06:56.261Z,96.01
2023-01-04T16:09:24.434Z,96.05
2023-01-04T16:12:13.772Z,95.59
2023-01-04T16:15:00.100Z,95.59
2023-01-04T16:17:28.363Z,95.21
2023-01-04T16:19:56.265Z,94.95
2023-01-04T16:22:24.498Z,95.15
2023-01-04T16:25:22.495Z,94.78
2023-01-04T16:27:40.689Z,94.97
2023-01-04T16:30:10.731Z,94.21
2023-01-04T16:32:45.218Z,94.40
2023-01-04T16:35:13.466Z,93.58
2023-01-04T16:37:44.835Z,93.81
2023-01-04T16:40:13.594Z,94.27
2023-01-04T16:42:41.774Z,94.31
2023-01-04T16:45:26.197Z,93.78
2023-01-04T16:47:55.209Z,94.02
2023-01-04T16:50:23.077Z,93.94
2023-01-04T16:52:53.911Z,93.53
2023-01-04T16:55:54.269Z,93.76
2023-01-04T16:58:22.473Z,94.97
2023-01-04T17:00:50.691Z,96.09
2023-01-04T17:03:18.606Z,96.23
2023-01-04T17:05:46.659Z,97.12
2023-01-04T17:08:14.774Z,96.48
2023-01-04T17:10:42.827Z,95.99
2023-01-04T17:13:10.755Z,96.84
2023-01-04T17:15:43.344Z,96.82
2023-01-04T17:18:14.004Z,97.56
2023-01-04T17:21:35.476Z,97.31
2023-01-04T17:24:03.943Z,97.23
2023-01-04T17:26:36.069Z,96.32
2023-01-04T17:29:04.128Z,96.18
2023-01-04T17:31:34.661Z,94.85
2023-01-04T17:34:04.026Z,95.23
2023-01-04T17:36:32.343Z,96.06
2023-01-04T17:39:01.640Z,95.68
2023-01-04T17:41:33.290Z,94.02
2023-01-04T17:44:03.424Z,93.80
2023-01-04T17:46:33.229Z,91.61
2023-01-04T17:49:23.929Z,92.99
2023-01-04T17:51:58.803Z,90.87
2023-01-04T17:54:35.848Z,90.70
2023-01-04T17:57:03.725Z,90.94
2023-01-04T17:59:31.700Z,92.70
2023-01-04T18:01:59.992Z,92.98
2023-01-04T18:04:28.127Z,93.10
2023-01-04T18:06:56.334Z,93.43
2023-01-04T18:09:26.157Z,93.36
2023-01-04T18:11:54.532Z,93.72
2023-01-04T18:14:23.896Z,93.53
2023-01-04T18:16:58.677Z,93.74
2023-01-04T18:19:31.255Z,94.15
2023-01-04T18:21:59.455Z,93.74
2023-01-04T18:24:37.814Z,93.62
2023-01-04T18:27:21.576Z,93.89
2023-01-04T18:29:50.520Z,93.66
2023-01-04T18:32:19.350Z,93.70
2023-01-04T18:34:48.039Z,93.65
2023-01-04T18:37:19.337Z,94.42
2023-01-04T18:39:49.199Z,93.43
2023-01-04T18:42:20.180Z,93.76
2023-01-04T18:44:51.024Z,93.81
2023-01-04T18:47:33.205Z,93.44
2023-01-04T18:53:11.183Z,91.91
2023-01-04T18:55:42.120Z,92.92
2023-01-04T18:58:21.426Z,91.79
2023-01-04T19:00:51.901Z,90.45
2023-01-04T19:04:59.386Z,91.27
2023-01-04T19:07:34.202Z,90.02
2023-01-04T19:10:02.171Z,90.60
2023-01-04T19:12:34.384Z,90.62
2023-01-04T19:15:03.639Z,90.58
2023-01-04T19:20:18.166Z,89.62
2023-01-04T19:22:46.091Z,89.27
2023-01-04T19:25:14.298Z,89.26
2023-01-04T19:30:27.664Z,89.58
2023-01-04T19:36:45.342Z,90.17
2023-01-04T19:39:14.951Z,89.02
2023-01-04T19:41:43.574Z,90.19
2023-01-04T19:44:24.321Z,89.12
2023-01-04T19:46:52.427Z,88.85
2023-01-04T19:49:23.667Z,88.32
2023-01-04T19:51:52.961Z,87.89
2023-01-04T19:54:25.094Z,88.05
2023-01-04T19:56:53.565Z,87.68
2023-01-04T19:59:21.977Z,87.49
2023-01-04T20:01:52.758Z,87.48
2023-01-04T20:04:51.189Z,87.17
2023-01-04T20:07:41.538Z,87.20
2023-01-04T20:10:14.566Z,87.70
2023-01-04T20:12:43.339Z,88.20
2023-01-04T20:15:18.515Z,87.49
2023-01-04T20:17:46.712Z,88.13
2023-01-04T20:26:43.613Z,88.19
2023-01-04T20:29:12.033Z,88.83
2023-01-04T20:31:45.358Z,88.83
2023-01-04T20:34:14.243Z,88.80
2023-01-04T20:36:43.698Z,88.68
2023-01-04T20:39:11.685Z,88.71
2023-01-04T20:41:49.604Z,89.46
2023-01-04T20:44:20.779Z,90.20
2023-01-04T20:46:48.936Z,89.38
2023-01-04T20:49:17.056Z,89.46
2023-01-04T20:51:45.014Z,89.72
2023-01-04T20:54:12.917Z,89.88
2023-01-04T20:56:41.652Z,90.20
2023-01-04T20:59:11.763Z,90.89
2023-01-04T21:01:39.967Z,90.96
2023-01-04T21:04:09.632Z,90.86
2023-01-04T21:06:45.647Z,90.96
2023-01-04T21:09:14.788Z,91.31
2023-01-04T21:11:47.334Z,91.12
2023-01-04T21:14:15.439Z,91.76
2023-01-04T21:16:48.762Z,91.85
2023-01-04T21:19:22.580Z,91.54
2023-01-04T21:21:52.128Z,92.10
2023-01-04T21:24:20.625Z,91.75
2023-01-04T21:26:48.771Z,92.01
2023-01-04T21:29:16.899Z,91.79
2023-01-04T21:31:45.782Z,92.36
2023-01-04T21:34:18.262Z,92.43
2023-01-04T21:36:49.380Z,92.03
2023-01-04T21:39:18.468Z,91.73
2023-01-04T21:41:48.370Z,92.20
2023-01-04T21:44:16.822Z,92.68
2023-01-04T21:46:47.930Z,92.06
2023-01-04T21:49:18.775Z,92.32
2023-01-04T21:51:47.477Z,92.65
2023-01-04T21:54:15.586Z,92.25
2023-01-04T21:59:34.863Z,93.32
2023-01-04T22:02:03.259Z,94.12
2023-01-04T22:04:32.408Z,94.99
2023-01-04T22:10:35.575Z,96.34
2023-01-04T22:13:12.754Z,97.07
2023-01-04T22:15:42.669Z,97.49
2023-01-04T22:18:39.555Z,97.81
2023-01-04T22:21:10.800Z,98.09
2023-01-04T22:27:18.027Z,98.44
2023-01-04T22:30:02.005Z,98.50
2023-01-04T22:32:59.700Z,98.45
2023-01-04T22:35:51.828Z,98.57
2023-01-04T22:41:53.922Z,98.96
2023-01-04T22:45:11.010Z,99.32
2023-01-04T22:47:48.805Z,98.90
2023-01-04T22:47:58.721Z,99.72
2023-01-04T22:51:20.468Z,100.00
2023-01-04T22:53:46.771Z,100.00
2023-01-04T22:56:20.820Z,100.00
2023-01-04T22:58:53.364Z,100.00
2023-01-04T23:01:30.669Z,100.00
2023-01-04T23:03:59.805Z,100.00
2023-01-04T23:06:28.195Z,100.00
2023-01-04T23:09:06.451Z,100.00
2023-01-04T23:11:35.353Z,100.00
2023-01-04T23:14:04.108Z,100.00
2023-01-04T23:16:33.374Z,100.00
2023-01-04T23:19:03.382Z,100.00
2023-01-04T23:21:31.306Z,100.00
2023-01-04T23:23:59.743Z,100.00
2023-01-04T23:26:28.667Z,100.00
2023-01-04T23:28:57.025Z,100.00
2023-01-04T23:31:26.019Z,100.00
2023-01-04T23:33:55.507Z,100.00
2023-01-04T23:36:26.949Z,100.00
2023-01-04T23:38:57.157Z,100.00
2023-01-04T23:41:46.566Z,100.00
2023-01-04T23:44:25.465Z,100.00
2023-01-04T23:46:55.632Z,100.00
2023-01-04T23:49:24.151Z,100.00
2023-01-04T23:51:52.196Z,100.00
2023-01-04T23:54:20.210Z,100.00
2023-01-04T23:56:48.182Z,100.00
2023-01-04T23:59:16.138Z,100.00
